sensor_id;sensor_type;location;lat;lon;timestamp;P1;durP1;ratioP1;P2;durP2;ratioP2
4272;SDS011;63887;53.656;9.810;2022-10-10T00:00:51;16.17;;;8.30;;
4272;SDS011;63887;53.656;9.810;2022-10-10T00:03:19;11.93;;;9.13;;
4272;SDS011;63887;53.656;9.810;2022-10-10T00:05:45;8.97;;;8.37;;
4272;SDS011;63887;53.656;9.810;2022-10-10T00:08:12;10.23;;;9.43;;
4272;SDS011;63887;53.656;9.810;2022-10-10T00:10:38;8.57;;;7.90;;
4272;SDS011;63887;53.656;9.810;2022-10-10T00:13:05;11.00;;;9.67;;
4272;SDS011;63887;53.656;9.810;2022-10-10T00:15:31;13.50;;;9.43;;
4272;SDS011;63887;53.656;9.810;2022-10-10T00:17:58;10.30;;;8.67;;
4272;SDS011;63887;53.656;9.810;2022-10-10T00:20:26;14.43;;;9.53;;
4272;SDS011;63887;53.656;9.810;2022-10-10T00:22:52;19.93;;;8.60;;
4272;SDS011;63887;53.656;9.810;2022-10-10T00:25:19;11.17;;;8.80;;
4272;SDS011;63887;53.656;9.810;2022-10-10T00:27:45;9.37;;;8.63;;
4272;SDS011;63887;53.656;9.810;2022-10-10T00:30:12;9.67;;;8.77;;
4272;SDS011;63887;53.656;9.810;2022-10-10T00:32:38;20.93;;;9.10;;
4272;SDS011;63887;53.656;9.810;2022-10-10T00:35:05;22.30;;;8.67;;
4272;SDS011;63887;53.656;9.810;2022-10-10T00:37:33;9.80;;;8.90;;
4272;SDS011;63887;53.656;9.810;2022-10-10T00:39:59;9.03;;;8.43;;
4272;SDS011;63887;53.656;9.810;2022-10-10T00:42:26;13.07;;;8.20;;
4272;SDS011;63887;53.656;9.810;2022-10-10T00:47:46;23.80;;;8.53;;
4272;SDS011;63887;53.656;9.810;2022-10-10T00:50:14;10.57;;;9.50;;
4272;SDS011;63887;53.656;9.810;2022-10-10T00:52:43;10.50;;;8.27;;
4272;SDS011;63887;53.656;9.810;2022-10-10T00:55:10;8.33;;;7.83;;
4272;SDS011;63887;53.656;9.810;2022-10-10T00:57:37;14.70;;;8.50;;
4272;SDS011;63887;53.656;9.810;2022-10-10T01:00:04;14.33;;;10.10;;
4272;SDS011;63887;53.656;9.810;2022-10-10T01:02:31;16.97;;;9.23;;
4272;SDS011;63887;53.656;9.810;2022-10-10T01:04:57;9.03;;;8.30;;
4272;SDS011;63887;53.656;9.810;2022-10-10T01:07:25;17.47;;;8.17;;
4272;SDS011;63887;53.656;9.810;2022-10-10T01:09:57;15.23;;;8.47;;
4272;SDS011;63887;53.656;9.810;2022-10-10T01:12:30;10.27;;;8.60;;
4272;SDS011;63887;53.656;9.810;2022-10-10T01:15:07;13.30;;;8.43;;
4272;SDS011;63887;53.656;9.810;2022-10-10T01:17:42;14.03;;;8.83;;
4272;SDS011;63887;53.656;9.810;2022-10-10T01:20:17;9.23;;;8.70;;
4272;SDS011;63887;53.656;9.810;2022-10-10T01:26:06;11.53;;;8.40;;
4272;SDS011;63887;53.656;9.810;2022-10-10T01:28:54;14.10;;;9.07;;
4272;SDS011;63887;53.656;9.810;2022-10-10T01:31:24;9.33;;;8.53;;
4272;SDS011;63887;53.656;9.810;2022-10-10T01:33:51;11.23;;;8.43;;
4272;SDS011;63887;53.656;9.810;2022-10-10T01:36:24;10.13;;;9.37;;
4272;SDS011;63887;53.656;9.810;2022-10-10T01:38:59;13.93;;;8.80;;
4272;SDS011;63887;53.656;9.810;2022-10-10T01:41:33;9.73;;;8.83;;
4272;SDS011;63887;53.656;9.810;2022-10-10T01:44:06;16.47;;;9.40;;
4272;SDS011;63887;53.656;9.810;2022-10-10T01:46:33;11.03;;;8.50;;
4272;SDS011;63887;53.656;9.810;2022-10-10T01:48:59;9.10;;;8.60;;
4272;SDS011;63887;53.656;9.810;2022-10-10T01:51:34;9.97;;;9.13;;
4272;SDS011;63887;53.656;9.810;2022-10-10T01:54:16;10.90;;;9.93;;
4272;SDS011;63887;53.656;9.810;2022-10-10T01:56:57;8.00;;;7.27;;
4272;SDS011;63887;53.656;9.810;2022-10-10T01:59:35;8.67;;;8.13;;
4272;SDS011;63887;53.656;9.810;2022-10-10T02:02:13;11.67;;;8.50;;
4272;SDS011;63887;53.656;9.810;2022-10-10T02:04:46;18.00;;;9.00;;
4272;SDS011;63887;53.656;9.810;2022-10-10T02:07:16;16.90;;;8.07;;
4272;SDS011;63887;53.656;9.810;2022-10-10T02:09:51;22.30;;;8.43;;
4272;SDS011;63887;53.656;9.810;2022-10-10T02:12:19;9.70;;;8.30;;
4272;SDS011;63887;53.656;9.810;2022-10-10T02:14:50;10.93;;;8.60;;
4272;SDS011;63887;53.656;9.810;2022-10-10T02:17:19;9.40;;;8.17;;
4272;SDS011;63887;53.656;9.810;2022-10-10T02:19:47;21.57;;;8.17;;
4272;SDS011;63887;53.656;9.810;2022-10-10T02:22:16;14.30;;;8.70;;
4272;SDS011;63887;53.656;9.810;2022-10-10T02:24:45;13.13;;;9.80;;
4272;SDS011;63887;53.656;9.810;2022-10-10T02:27:18;17.93;;;9.57;;
4272;SDS011;63887;53.656;9.810;2022-10-10T02:29:50;7.97;;;7.57;;
4272;SDS011;63887;53.656;9.810;2022-10-10T02:32:19;9.47;;;8.70;;
4272;SDS011;63887;53.656;9.810;2022-10-10T02:34:52;9.20;;;8.47;;
4272;SDS011;63887;53.656;9.810;2022-10-10T02:37:22;10.27;;;9.37;;
4272;SDS011;63887;53.656;9.810;2022-10-10T02:39:51;11.43;;;9.40;;
4272;SDS011;63887;53.656;9.810;2022-10-10T02:42:21;9.47;;;9.00;;
4272;SDS011;63887;53.656;9.810;2022-10-10T02:44:50;28.90;;;9.37;;
4272;SDS011;63887;53.656;9.810;2022-10-10T02:47:17;11.87;;;8.97;;
4272;SDS011;63887;53.656;9.810;2022-10-10T02:49:43;9.07;;;8.57;;
4272;SDS011;63887;53.656;9.810;2022-10-10T02:52:11;12.40;;;9.20;;
4272;SDS011;63887;53.656;9.810;2022-10-10T02:54:39;14.80;;;9.53;;
4272;SDS011;63887;53.656;9.810;2022-10-10T02:57:05;16.10;;;8.47;;
4272;SDS011;63887;53.656;9.810;2022-10-10T02:59:32;10.10;;;9.30;;
4272;SDS011;63887;53.656;9.810;2022-10-10T03:02:00;15.20;;;9.07;;
4272;SDS011;63887;53.656;9.810;2022-10-10T03:04:26;9.60;;;8.90;;
4272;SDS011;63887;53.656;9.810;2022-10-10T03:06:53;9.50;;;8.67;;
4272;SDS011;63887;53.656;9.810;2022-10-10T03:09:19;9.50;;;8.70;;
4272;SDS011;63887;53.656;9.810;2022-10-10T03:11:46;16.30;;;9.10;;
4272;SDS011;63887;53.656;9.810;2022-10-10T03:14:12;10.40;;;9.60;;
4272;SDS011;63887;53.656;9.810;2022-10-10T03:16:39;20.33;;;9.90;;
4272;SDS011;63887;53.656;9.810;2022-10-10T03:19:07;9.80;;;9.17;;
4272;SDS011;63887;53.656;9.810;2022-10-10T03:21:33;10.40;;;9.37;;
4272;SDS011;63887;53.656;9.810;2022-10-10T03:24:00;9.73;;;8.80;;
4272;SDS011;63887;53.656;9.810;2022-10-10T03:26:26;11.43;;;10.20;;
4272;SDS011;63887;53.656;9.810;2022-10-10T03:28:53;10.60;;;8.57;;
4272;SDS011;63887;53.656;9.810;2022-10-10T03:31:19;8.60;;;7.90;;
4272;SDS011;63887;53.656;9.810;2022-10-10T03:33:46;10.50;;;9.43;;
4272;SDS011;63887;53.656;9.810;2022-10-10T03:36:13;15.53;;;9.90;;
4272;SDS011;63887;53.656;9.810;2022-10-10T03:38:40;11.00;;;9.93;;
4272;SDS011;63887;53.656;9.810;2022-10-10T03:41:07;13.67;;;8.63;;
4272;SDS011;63887;53.656;9.810;2022-10-10T03:43:33;10.43;;;9.63;;
4272;SDS011;63887;53.656;9.810;2022-10-10T03:46:00;12.30;;;9.10;;
4272;SDS011;63887;53.656;9.810;2022-10-10T03:48:26;10.67;;;8.70;;
4272;SDS011;63887;53.656;9.810;2022-10-10T03:50:52;11.10;;;10.13;;
4272;SDS011;63887;53.656;9.810;2022-10-10T03:53:20;11.00;;;9.93;;
4272;SDS011;63887;53.656;9.810;2022-10-10T03:55:47;11.87;;;10.63;;
4272;SDS011;63887;53.656;9.810;2022-10-10T03:58:13;10.43;;;9.70;;
4272;SDS011;63887;53.656;9.810;2022-10-10T04:00:40;11.13;;;10.07;;
4272;SDS011;63887;53.656;9.810;2022-10-10T04:03:07;19.03;;;10.73;;
4272;SDS011;63887;53.656;9.810;2022-10-10T04:05:33;12.03;;;10.57;;
4272;SDS011;63887;53.656;9.810;2022-10-10T04:08:00;12.80;;;8.80;;
4272;SDS011;63887;53.656;9.810;2022-10-10T04:10:28;31.70;;;9.63;;
4272;SDS011;63887;53.656;9.810;2022-10-10T04:12:55;11.57;;;9.57;;
4272;SDS011;63887;53.656;9.810;2022-10-10T04:15:22;11.30;;;10.50;;
4272;SDS011;63887;53.656;9.810;2022-10-10T04:17:49;10.83;;;10.03;;
4272;SDS011;63887;53.656;9.810;2022-10-10T04:20:16;10.93;;;9.97;;
4272;SDS011;63887;53.656;9.810;2022-10-10T04:22:43;19.43;;;10.30;;
4272;SDS011;63887;53.656;9.810;2022-10-10T04:25:09;16.40;;;9.50;;
4272;SDS011;63887;53.656;9.810;2022-10-10T04:27:37;10.00;;;9.40;;
4272;SDS011;63887;53.656;9.810;2022-10-10T04:30:04;12.17;;;11.13;;
4272;SDS011;63887;53.656;9.810;2022-10-10T04:32:32;12.20;;;10.50;;
4272;SDS011;63887;53.656;9.810;2022-10-10T04:34:58;11.47;;;10.67;;
4272;SDS011;63887;53.656;9.810;2022-10-10T04:37:25;14.60;;;11.83;;
4272;SDS011;63887;53.656;9.810;2022-10-10T04:39:51;18.53;;;11.77;;
4272;SDS011;63887;53.656;9.810;2022-10-10T04:42:18;19.93;;;10.63;;
4272;SDS011;63887;53.656;9.810;2022-10-10T04:44:45;11.43;;;10.60;;
4272;SDS011;63887;53.656;9.810;2022-10-10T04:47:12;11.10;;;10.33;;
4272;SDS011;63887;53.656;9.810;2022-10-10T04:49:38;18.40;;;10.43;;
4272;SDS011;63887;53.656;9.810;2022-10-10T04:52:06;14.83;;;10.17;;
4272;SDS011;63887;53.656;9.810;2022-10-10T04:54:32;11.40;;;10.57;;
4272;SDS011;63887;53.656;9.810;2022-10-10T04:56:59;10.57;;;9.93;;
4272;SDS011;63887;53.656;9.810;2022-10-10T04:59:25;13.00;;;11.13;;
4272;SDS011;63887;53.656;9.810;2022-10-10T05:01:53;11.13;;;10.27;;
4272;SDS011;63887;53.656;9.810;2022-10-10T05:04:19;18.90;;;11.20;;
4272;SDS011;63887;53.656;9.810;2022-10-10T05:06:46;12.00;;;10.07;;
4272;SDS011;63887;53.656;9.810;2022-10-10T05:09:12;10.87;;;10.07;;
4272;SDS011;63887;53.656;9.810;2022-10-10T05:11:39;12.73;;;10.87;;
4272;SDS011;63887;53.656;9.810;2022-10-10T05:14:05;15.30;;;10.60;;
4272;SDS011;63887;53.656;9.810;2022-10-10T05:16:32;10.73;;;9.70;;
4272;SDS011;63887;53.656;9.810;2022-10-10T05:19:00;10.03;;;9.33;;
4272;SDS011;63887;53.656;9.810;2022-10-10T05:21:26;11.80;;;10.17;;
4272;SDS011;63887;53.656;9.810;2022-10-10T05:23:53;21.10;;;9.60;;
4272;SDS011;63887;53.656;9.810;2022-10-10T05:26:19;10.90;;;10.00;;
4272;SDS011;63887;53.656;9.810;2022-10-10T05:28:46;11.23;;;10.17;;
4272;SDS011;63887;53.656;9.810;2022-10-10T05:31:12;10.83;;;9.73;;
4272;SDS011;63887;53.656;9.810;2022-10-10T05:33:39;11.07;;;10.10;;
4272;SDS011;63887;53.656;9.810;2022-10-10T05:36:07;10.63;;;9.73;;
4272;SDS011;63887;53.656;9.810;2022-10-10T05:38:35;16.03;;;10.93;;
4272;SDS011;63887;53.656;9.810;2022-10-10T05:41:02;25.60;;;10.63;;
4272;SDS011;63887;53.656;9.810;2022-10-10T05:43:29;10.77;;;9.87;;
4272;SDS011;63887;53.656;9.810;2022-10-10T05:45:55;11.77;;;10.87;;
4272;SDS011;63887;53.656;9.810;2022-10-10T05:48:22;14.50;;;10.90;;
4272;SDS011;63887;53.656;9.810;2022-10-10T05:50:49;13.50;;;12.30;;
4272;SDS011;63887;53.656;9.810;2022-10-10T05:53:18;12.90;;;11.80;;
4272;SDS011;63887;53.656;9.810;2022-10-10T05:55:44;19.00;;;10.40;;
4272;SDS011;63887;53.656;9.810;2022-10-10T05:58:11;14.93;;;12.10;;
4272;SDS011;63887;53.656;9.810;2022-10-10T06:00:38;15.07;;;11.63;;
4272;SDS011;63887;53.656;9.810;2022-10-10T06:03:04;17.43;;;10.80;;
4272;SDS011;63887;53.656;9.810;2022-10-10T06:05:31;12.30;;;10.53;;
4272;SDS011;63887;53.656;9.810;2022-10-10T06:07:57;12.10;;;11.20;;
4272;SDS011;63887;53.656;9.810;2022-10-10T06:10:25;13.07;;;11.73;;
4272;SDS011;63887;53.656;9.810;2022-10-10T06:12:52;13.73;;;12.17;;
4272;SDS011;63887;53.656;9.810;2022-10-10T06:15:18;12.27;;;11.50;;
4272;SDS011;63887;53.656;9.810;2022-10-10T06:17:44;15.67;;;12.00;;
4272;SDS011;63887;53.656;9.810;2022-10-10T06:20:11;13.33;;;11.93;;
4272;SDS011;63887;53.656;9.810;2022-10-10T06:22:37;11.57;;;10.67;;
4272;SDS011;63887;53.656;9.810;2022-10-10T06:25:04;14.67;;;11.30;;
4272;SDS011;63887;53.656;9.810;2022-10-10T06:27:32;12.37;;;11.10;;
4272;SDS011;63887;53.656;9.810;2022-10-10T06:29:58;12.73;;;11.70;;
4272;SDS011;63887;53.656;9.810;2022-10-10T06:32:25;13.90;;;12.60;;
4272;SDS011;63887;53.656;9.810;2022-10-10T06:34:51;14.07;;;11.10;;
4272;SDS011;63887;53.656;9.810;2022-10-10T06:37:17;15.30;;;10.63;;
4272;SDS011;63887;53.656;9.810;2022-10-10T06:39:44;13.63;;;12.20;;
4272;SDS011;63887;53.656;9.810;2022-10-10T06:42:10;13.60;;;11.10;;
4272;SDS011;63887;53.656;9.810;2022-10-10T06:44:38;14.93;;;12.43;;
4272;SDS011;63887;53.656;9.810;2022-10-10T06:47:04;12.77;;;11.47;;
4272;SDS011;63887;53.656;9.810;2022-10-10T06:49:32;12.13;;;11.20;;
4272;SDS011;63887;53.656;9.810;2022-10-10T06:51:58;14.43;;;11.60;;
4272;SDS011;63887;53.656;9.810;2022-10-10T06:54:25;12.83;;;11.53;;
4272;SDS011;63887;53.656;9.810;2022-10-10T06:56:51;10.73;;;9.80;;
4272;SDS011;63887;53.656;9.810;2022-10-10T06:59:17;15.07;;;11.90;;
4272;SDS011;63887;53.656;9.810;2022-10-10T07:01:45;13.10;;;11.47;;
4272;SDS011;63887;53.656;9.810;2022-10-10T07:04:13;24.40;;;12.57;;
4272;SDS011;63887;53.656;9.810;2022-10-10T07:06:39;11.53;;;10.60;;
4272;SDS011;63887;53.656;9.810;2022-10-10T07:09:06;18.73;;;11.20;;
4272;SDS011;63887;53.656;9.810;2022-10-10T07:11:32;11.93;;;10.70;;
4272;SDS011;63887;53.656;9.810;2022-10-10T07:13:59;13.33;;;11.23;;
4272;SDS011;63887;53.656;9.810;2022-10-10T07:16:26;14.00;;;12.07;;
4272;SDS011;63887;53.656;9.810;2022-10-10T07:18:53;13.00;;;11.67;;
4272;SDS011;63887;53.656;9.810;2022-10-10T07:21:20;12.63;;;11.40;;
4272;SDS011;63887;53.656;9.810;2022-10-10T07:23:46;13.90;;;10.93;;
4272;SDS011;63887;53.656;9.810;2022-10-10T07:26:13;11.40;;;10.73;;
4272;SDS011;63887;53.656;9.810;2022-10-10T07:28:40;11.77;;;10.43;;
4272;SDS011;63887;53.656;9.810;2022-10-10T07:31:07;11.87;;;10.83;;
4272;SDS011;63887;53.656;9.810;2022-10-10T07:33:36;14.87;;;10.93;;
4272;SDS011;63887;53.656;9.810;2022-10-10T07:36:05;13.10;;;10.80;;
4272;SDS011;63887;53.656;9.810;2022-10-10T07:38:32;11.07;;;9.87;;
4272;SDS011;63887;53.656;9.810;2022-10-10T07:40:59;10.93;;;10.23;;
4272;SDS011;63887;53.656;9.810;2022-10-10T07:43:26;10.10;;;9.33;;
4272;SDS011;63887;53.656;9.810;2022-10-10T07:45:52;11.77;;;9.90;;
4272;SDS011;63887;53.656;9.810;2022-10-10T07:48:19;14.10;;;11.77;;
4272;SDS011;63887;53.656;9.810;2022-10-10T07:50:45;11.33;;;10.20;;
4272;SDS011;63887;53.656;9.810;2022-10-10T07:53:13;11.50;;;10.40;;
4272;SDS011;63887;53.656;9.810;2022-10-10T07:55:40;11.77;;;10.77;;
4272;SDS011;63887;53.656;9.810;2022-10-10T07:58:07;13.23;;;10.90;;
4272;SDS011;63887;53.656;9.810;2022-10-10T08:00:34;11.73;;;10.60;;
4272;SDS011;63887;53.656;9.810;2022-10-10T08:03:01;14.97;;;10.87;;
4272;SDS011;63887;53.656;9.810;2022-10-10T08:05:28;17.43;;;11.53;;
4272;SDS011;63887;53.656;9.810;2022-10-10T08:07:54;12.37;;;11.17;;
4272;SDS011;63887;53.656;9.810;2022-10-10T08:10:22;12.10;;;11.07;;
4272;SDS011;63887;53.656;9.810;2022-10-10T08:12:49;12.53;;;11.50;;
4272;SDS011;63887;53.656;9.810;2022-10-10T08:15:16;17.70;;;10.90;;
4272;SDS011;63887;53.656;9.810;2022-10-10T08:17:42;13.13;;;11.90;;
4272;SDS011;63887;53.656;9.810;2022-10-10T08:20:09;11.93;;;10.93;;
4272;SDS011;63887;53.656;9.810;2022-10-10T08:22:35;11.87;;;10.73;;
4272;SDS011;63887;53.656;9.810;2022-10-10T08:25:01;13.30;;;10.37;;
4272;SDS011;63887;53.656;9.810;2022-10-10T08:27:29;12.37;;;11.20;;
4272;SDS011;63887;53.656;9.810;2022-10-10T08:29:56;10.80;;;9.97;;
4272;SDS011;63887;53.656;9.810;2022-10-10T08:32:22;12.60;;;11.30;;
4272;SDS011;63887;53.656;9.810;2022-10-10T08:34:49;10.33;;;9.60;;
4272;SDS011;63887;53.656;9.810;2022-10-10T08:37:16;12.13;;;11.03;;
4272;SDS011;63887;53.656;9.810;2022-10-10T08:39:42;11.90;;;9.60;;
4272;SDS011;63887;53.656;9.810;2022-10-10T08:42:12;11.87;;;10.77;;
4272;SDS011;63887;53.656;9.810;2022-10-10T08:44:44;15.70;;;11.10;;
4272;SDS011;63887;53.656;9.810;2022-10-10T08:47:15;11.00;;;9.93;;
4272;SDS011;63887;53.656;9.810;2022-10-10T08:49:44;12.10;;;11.10;;
4272;SDS011;63887;53.656;9.810;2022-10-10T08:52:26;10.87;;;9.97;;
4272;SDS011;63887;53.656;9.810;2022-10-10T08:54:57;10.20;;;9.40;;
4272;SDS011;63887;53.656;9.810;2022-10-10T08:57:27;11.50;;;10.37;;
4272;SDS011;63887;53.656;9.810;2022-10-10T09:00:00;14.93;;;11.57;;
4272;SDS011;63887;53.656;9.810;2022-10-10T09:02:33;12.70;;;11.30;;
4272;SDS011;63887;53.656;9.810;2022-10-10T09:05:03;10.60;;;9.90;;
4272;SDS011;63887;53.656;9.810;2022-10-10T09:07:33;11.60;;;10.37;;
4272;SDS011;63887;53.656;9.810;2022-10-10T09:10:16;11.33;;;10.27;;
4272;SDS011;63887;53.656;9.810;2022-10-10T09:12:47;11.77;;;10.50;;
4272;SDS011;63887;53.656;9.810;2022-10-10T09:15:27;12.37;;;11.37;;
4272;SDS011;63887;53.656;9.810;2022-10-10T09:17:59;10.87;;;9.87;;
4272;SDS011;63887;53.656;9.810;2022-10-10T09:20:34;10.93;;;10.40;;
4272;SDS011;63887;53.656;9.810;2022-10-10T09:23:11;15.93;;;8.90;;
4272;SDS011;63887;53.656;9.810;2022-10-10T09:25:46;10.40;;;9.57;;
4272;SDS011;63887;53.656;9.810;2022-10-10T09:28:18;10.63;;;9.70;;
4272;SDS011;63887;53.656;9.810;2022-10-10T09:30:53;9.83;;;9.33;;
4272;SDS011;63887;53.656;9.810;2022-10-10T09:33:25;10.17;;;9.57;;
4272;SDS011;63887;53.656;9.810;2022-10-10T09:35:56;11.87;;;10.57;;
4272;SDS011;63887;53.656;9.810;2022-10-10T09:38:32;12.03;;;10.80;;
4272;SDS011;63887;53.656;9.810;2022-10-10T09:41:04;12.67;;;11.57;;
4272;SDS011;63887;53.656;9.810;2022-10-10T09:43:37;12.03;;;11.13;;
4272;SDS011;63887;53.656;9.810;2022-10-10T09:46:06;11.63;;;10.87;;
4272;SDS011;63887;53.656;9.810;2022-10-10T09:48:33;10.80;;;10.00;;
4272;SDS011;63887;53.656;9.810;2022-10-10T09:51:02;10.73;;;10.00;;
4272;SDS011;63887;53.656;9.810;2022-10-10T09:53:31;10.07;;;9.17;;
4272;SDS011;63887;53.656;9.810;2022-10-10T09:55:57;11.07;;;10.47;;
4272;SDS011;63887;53.656;9.810;2022-10-10T09:58:25;10.00;;;9.40;;
4272;SDS011;63887;53.656;9.810;2022-10-10T10:01:10;10.80;;;9.47;;
4272;SDS011;63887;53.656;9.810;2022-10-10T10:03:38;10.40;;;9.80;;
4272;SDS011;63887;53.656;9.810;2022-10-10T10:06:08;11.27;;;10.23;;
4272;SDS011;63887;53.656;9.810;2022-10-10T10:08:37;10.57;;;9.83;;
4272;SDS011;63887;53.656;9.810;2022-10-10T10:11:04;10.73;;;9.77;;
4272;SDS011;63887;53.656;9.810;2022-10-10T10:13:32;13.53;;;10.43;;
4272;SDS011;63887;53.656;9.810;2022-10-10T10:16:02;9.33;;;8.87;;
4272;SDS011;63887;53.656;9.810;2022-10-10T10:18:37;9.43;;;8.93;;
4272;SDS011;63887;53.656;9.810;2022-10-10T10:21:19;9.67;;;8.87;;
4272;SDS011;63887;53.656;9.810;2022-10-10T10:23:52;10.07;;;9.27;;
4272;SDS011;63887;53.656;9.810;2022-10-10T10:26:23;9.37;;;8.77;;
4272;SDS011;63887;53.656;9.810;2022-10-10T10:28:52;9.60;;;8.90;;
4272;SDS011;63887;53.656;9.810;2022-10-10T10:31:24;10.33;;;9.00;;
4272;SDS011;63887;53.656;9.810;2022-10-10T10:34:04;9.60;;;8.80;;
4272;SDS011;63887;53.656;9.810;2022-10-10T10:36:40;35.33;;;9.17;;
4272;SDS011;63887;53.656;9.810;2022-10-10T10:39:15;11.13;;;10.00;;
4272;SDS011;63887;53.656;9.810;2022-10-10T10:41:55;14.23;;;9.77;;
4272;SDS011;63887;53.656;9.810;2022-10-10T10:44:31;9.53;;;9.13;;
4272;SDS011;63887;53.656;9.810;2022-10-10T10:47:10;12.07;;;8.50;;
4272;SDS011;63887;53.656;9.810;2022-10-10T10:49:56;11.53;;;10.23;;
4272;SDS011;63887;53.656;9.810;2022-10-10T10:52:42;11.50;;;10.47;;
4272;SDS011;63887;53.656;9.810;2022-10-10T10:55:24;10.83;;;9.77;;
4272;SDS011;63887;53.656;9.810;2022-10-10T10:58:05;10.30;;;9.50;;
4272;SDS011;63887;53.656;9.810;2022-10-10T11:00:49;10.20;;;8.93;;
4272;SDS011;63887;53.656;9.810;2022-10-10T11:03:22;11.13;;;10.17;;
4272;SDS011;63887;53.656;9.810;2022-10-10T11:05:59;9.43;;;9.00;;
4272;SDS011;63887;53.656;9.810;2022-10-10T11:08:39;9.87;;;9.10;;
4272;SDS011;63887;53.656;9.810;2022-10-10T11:11:20;10.50;;;9.60;;
4272;SDS011;63887;53.656;9.810;2022-10-10T11:13:57;12.40;;;10.37;;
4272;SDS011;63887;53.656;9.810;2022-10-10T11:16:28;9.80;;;9.07;;
4272;SDS011;63887;53.656;9.810;2022-10-10T11:19:03;15.77;;;10.00;;
4272;SDS011;63887;53.656;9.810;2022-10-10T11:21:40;11.03;;;9.93;;
4272;SDS011;63887;53.656;9.810;2022-10-10T11:24:12;16.93;;;9.63;;
4272;SDS011;63887;53.656;9.810;2022-10-10T11:26:45;10.47;;;9.47;;
4272;SDS011;63887;53.656;9.810;2022-10-10T11:29:19;9.20;;;8.47;;
4272;SDS011;63887;53.656;9.810;2022-10-10T11:31:50;22.13;;;11.00;;
4272;SDS011;63887;53.656;9.810;2022-10-10T11:34:23;10.77;;;9.63;;
4272;SDS011;63887;53.656;9.810;2022-10-10T11:36:56;10.87;;;8.87;;
4272;SDS011;63887;53.656;9.810;2022-10-10T11:39:29;10.37;;;9.50;;
4272;SDS011;63887;53.656;9.810;2022-10-10T11:42:01;9.47;;;8.70;;
4272;SDS011;63887;53.656;9.810;2022-10-10T11:44:33;9.63;;;9.23;;
4272;SDS011;63887;53.656;9.810;2022-10-10T11:47:06;10.43;;;9.20;;
4272;SDS011;63887;53.656;9.810;2022-10-10T11:49:42;11.80;;;10.00;;
4272;SDS011;63887;53.656;9.810;2022-10-10T11:52:20;10.73;;;9.83;;
4272;SDS011;63887;53.656;9.810;2022-10-10T11:54:52;12.80;;;9.17;;
4272;SDS011;63887;53.656;9.810;2022-10-10T11:57:26;9.37;;;8.77;;
4272;SDS011;63887;53.656;9.810;2022-10-10T11:59:58;9.40;;;8.90;;
4272;SDS011;63887;53.656;9.810;2022-10-10T12:02:30;9.60;;;8.80;;
4272;SDS011;63887;53.656;9.810;2022-10-10T12:04:58;9.97;;;9.37;;
4272;SDS011;63887;53.656;9.810;2022-10-10T12:07:27;13.53;;;9.43;;
4272;SDS011;63887;53.656;9.810;2022-10-10T12:09:58;12.50;;;9.73;;
4272;SDS011;63887;53.656;9.810;2022-10-10T12:12:27;10.80;;;9.93;;
4272;SDS011;63887;53.656;9.810;2022-10-10T12:14:59;14.70;;;10.70;;
4272;SDS011;63887;53.656;9.810;2022-10-10T12:17:31;10.53;;;9.83;;
4272;SDS011;63887;53.656;9.810;2022-10-10T12:20:06;13.53;;;8.73;;
4272;SDS011;63887;53.656;9.810;2022-10-10T12:22:36;10.93;;;9.73;;
4272;SDS011;63887;53.656;9.810;2022-10-10T12:25:04;11.43;;;10.13;;
4272;SDS011;63887;53.656;9.810;2022-10-10T12:27:43;11.07;;;10.17;;
4272;SDS011;63887;53.656;9.810;2022-10-10T12:32:51;11.17;;;10.47;;
4272;SDS011;63887;53.656;9.810;2022-10-10T12:35:26;17.77;;;10.17;;
4272;SDS011;63887;53.656;9.810;2022-10-10T12:38:13;12.10;;;11.23;;
4272;SDS011;63887;53.656;9.810;2022-10-10T12:43:38;10.50;;;9.77;;
4272;SDS011;63887;53.656;9.810;2022-10-10T12:46:16;10.97;;;10.17;;
4272;SDS011;63887;53.656;9.810;2022-10-10T12:49:02;13.80;;;10.47;;
4272;SDS011;63887;53.656;9.810;2022-10-10T12:51:38;11.80;;;10.70;;
4272;SDS011;63887;53.656;9.810;2022-10-10T12:56:38;11.87;;;10.60;;
4272;SDS011;63887;53.656;9.810;2022-10-10T12:59:06;15.90;;;10.07;;
4272;SDS011;63887;53.656;9.810;2022-10-10T13:01:45;12.33;;;11.33;;
4272;SDS011;63887;53.656;9.810;2022-10-10T13:04:18;9.90;;;9.50;;
4272;SDS011;63887;53.656;9.810;2022-10-10T13:06:45;11.03;;;10.03;;
4272;SDS011;63887;53.656;9.810;2022-10-10T13:09:15;11.80;;;10.53;;
4272;SDS011;63887;53.656;9.810;2022-10-10T13:11:55;12.53;;;10.53;;
4272;SDS011;63887;53.656;9.810;2022-10-10T13:14:24;10.10;;;9.53;;
4272;SDS011;63887;53.656;9.810;2022-10-10T13:16:52;10.63;;;9.77;;
4272;SDS011;63887;53.656;9.810;2022-10-10T13:19:19;10.83;;;9.83;;
4272;SDS011;63887;53.656;9.810;2022-10-10T13:21:47;11.93;;;10.73;;
4272;SDS011;63887;53.656;9.810;2022-10-10T13:24:17;12.27;;;11.03;;
4272;SDS011;63887;53.656;9.810;2022-10-10T13:26:49;10.13;;;9.43;;
4272;SDS011;63887;53.656;9.810;2022-10-10T13:29:20;10.93;;;10.23;;
4272;SDS011;63887;53.656;9.810;2022-10-10T13:31:51;15.40;;;10.40;;
4272;SDS011;63887;53.656;9.810;2022-10-10T13:34:21;14.27;;;10.23;;
4272;SDS011;63887;53.656;9.810;2022-10-10T13:36:51;10.53;;;9.40;;
4272;SDS011;63887;53.656;9.810;2022-10-10T13:39:18;20.40;;;11.10;;
4272;SDS011;63887;53.656;9.810;2022-10-10T13:41:45;11.83;;;10.67;;
4272;SDS011;63887;53.656;9.810;2022-10-10T13:44:13;14.27;;;10.60;;
4272;SDS011;63887;53.656;9.810;2022-10-10T13:46:42;14.43;;;10.83;;
4272;SDS011;63887;53.656;9.810;2022-10-10T13:49:12;10.73;;;9.70;;
4272;SDS011;63887;53.656;9.810;2022-10-10T13:51:46;10.83;;;9.97;;
4272;SDS011;63887;53.656;9.810;2022-10-10T13:54:34;11.10;;;9.93;;
4272;SDS011;63887;53.656;9.810;2022-10-10T13:57:02;9.77;;;9.17;;
4272;SDS011;63887;53.656;9.810;2022-10-10T13:59:30;10.27;;;9.47;;
4272;SDS011;63887;53.656;9.810;2022-10-10T14:02:00;12.20;;;10.47;;
4272;SDS011;63887;53.656;9.810;2022-10-10T14:04:29;10.93;;;10.33;;
4272;SDS011;63887;53.656;9.810;2022-10-10T14:07:02;15.40;;;9.83;;
4272;SDS011;63887;53.656;9.810;2022-10-10T14:09:32;16.77;;;11.33;;
4272;SDS011;63887;53.656;9.810;2022-10-10T14:12:02;10.73;;;10.10;;
4272;SDS011;63887;53.656;9.810;2022-10-10T14:14:31;10.63;;;10.00;;
4272;SDS011;63887;53.656;9.810;2022-10-10T14:17:02;12.07;;;10.07;;
4272;SDS011;63887;53.656;9.810;2022-10-10T14:19:30;10.77;;;9.87;;
4272;SDS011;63887;53.656;9.810;2022-10-10T14:21:57;11.20;;;10.50;;
4272;SDS011;63887;53.656;9.810;2022-10-10T14:24:24;10.73;;;9.93;;
4272;SDS011;63887;53.656;9.810;2022-10-10T14:26:50;11.90;;;10.87;;
4272;SDS011;63887;53.656;9.810;2022-10-10T14:29:17;10.73;;;9.93;;
4272;SDS011;63887;53.656;9.810;2022-10-10T14:31:45;16.63;;;10.77;;
4272;SDS011;63887;53.656;9.810;2022-10-10T14:34:13;11.10;;;9.67;;
4272;SDS011;63887;53.656;9.810;2022-10-10T14:36:41;10.77;;;9.90;;
4272;SDS011;63887;53.656;9.810;2022-10-10T14:39:12;10.47;;;9.80;;
4272;SDS011;63887;53.656;9.810;2022-10-10T14:41:39;11.40;;;9.93;;
4272;SDS011;63887;53.656;9.810;2022-10-10T14:44:06;9.80;;;8.97;;
4272;SDS011;63887;53.656;9.810;2022-10-10T14:46:32;13.87;;;9.50;;
4272;SDS011;63887;53.656;9.810;2022-10-10T14:48:59;11.20;;;9.87;;
4272;SDS011;63887;53.656;9.810;2022-10-10T14:51:27;10.50;;;9.70;;
4272;SDS011;63887;53.656;9.810;2022-10-10T14:53:54;10.70;;;9.77;;
4272;SDS011;63887;53.656;9.810;2022-10-10T14:56:20;10.33;;;9.60;;
4272;SDS011;63887;53.656;9.810;2022-10-10T14:58:46;15.63;;;10.03;;
4272;SDS011;63887;53.656;9.810;2022-10-10T15:01:13;19.70;;;11.00;;
4272;SDS011;63887;53.656;9.810;2022-10-10T15:03:40;11.40;;;10.40;;
4272;SDS011;63887;53.656;9.810;2022-10-10T15:06:08;10.47;;;9.37;;
4272;SDS011;63887;53.656;9.810;2022-10-10T15:08:37;11.23;;;10.00;;
4272;SDS011;63887;53.656;9.810;2022-10-10T15:11:03;12.43;;;10.20;;